sensor_id;sensor_type;location;lat;lon;timestamp;temperature;humidity
48946;DHT22;34999;50.940;3.998;2022-11-15T00:01:24;10.70;99.90
48946;DHT22;34999;50.940;3.998;2022-11-15T00:03:55;10.70;99.90
48946;DHT22;34999;50.940;3.998;2022-11-15T00:06:23;10.80;99.90
48946;DHT22;34999;50.940;3.998;2022-11-15T00:08:51;10.80;99.90
48946;DHT22;34999;50.940;3.998;2022-11-15T00:11:19;10.90;99.90
48946;DHT22;34999;50.940;3.998;2022-11-15T00:13:47;10.90;99.90
48946;DHT22;34999;50.940;3.998;2022-11-15T00:16:16;10.90;99.90
48946;DHT22;34999;50.940;3.998;2022-11-15T00:18:44;10.90;99.90
48946;DHT22;34999;50.940;3.998;2022-11-15T00:21:18;10.90;99.90
48946;DHT22;34999;50.940;3.998;2022-11-15T00:23:47;11.00;99.90
48946;DHT22;34999;50.940;3.998;2022-11-15T00:26:15;11.00;99.90
48946;DHT22;34999;50.940;3.998;2022-11-15T00:28:43;11.10;99.90
48946;DHT22;34999;50.940;3.998;2022-11-15T00:31:13;11.00;99.90
48946;DHT22;34999;50.940;3.998;2022-11-15T00:33:43;11.00;99.90
48946;DHT22;34999;50.940;3.998;2022-11-15T00:36:12;11.10;99.90
48946;DHT22;34999;50.940;3.998;2022-11-15T00:38:42;11.10;99.90
48946;DHT22;34999;50.940;3.998;2022-11-15T00:41:10;11.10;99.90
48946;DHT22;34999;50.940;3.998;2022-11-15T00:43:38;11.10;99.90
48946;DHT22;34999;50.940;3.998;2022-11-15T00:46:10;11.20;99.90
48946;DHT22;34999;50.940;3.998;2022-11-15T00:48:38;11.20;99.90
48946;DHT22;34999;50.940;3.998;2022-11-15T00:51:06;11.20;99.90
48946;DHT22;34999;50.940;3.998;2022-11-15T00:53:35;11.20;99.90
48946;DHT22;34999;50.940;3.998;2022-11-15T00:56:05;11.10;99.90
48946;DHT22;34999;50.940;3.998;2022-11-15T00:58:33;11.10;99.90
48946;DHT22;34999;50.940;3.998;2022-11-15T01:01:09;11.10;99.90
48946;DHT22;34999;50.940;3.998;2022-11-15T01:03:39;11.10;99.90
48946;DHT22;34999;50.940;3.998;2022-11-15T01:06:08;11.20;99.90
48946;DHT22;34999;50.940;3.998;2022-11-15T01:08:37;11.20;99.90
48946;DHT22;34999;50.940;3.998;2022-11-15T01:11:09;11.20;99.90
48946;DHT22;34999;50.940;3.998;2022-11-15T01:13:39;11.20;99.90
48946;DHT22;34999;50.940;3.998;2022-11-15T01:16:09;11.20;99.90
48946;DHT22;34999;50.940;3.998;2022-11-15T01:18:38;11.20;99.90
48946;DHT22;34999;50.940;3.998;2022-11-15T01:21:08;11.30;99.90
48946;DHT22;34999;50.940;3.998;2022-11-15T01:23:37;11.20;99.90
48946;DHT22;34999;50.940;3.998;2022-11-15T01:26:10;11.20;99.90
48946;DHT22;34999;50.940;3.998;2022-11-15T01:28:40;11.20;99.90
48946;DHT22;34999;50.940;3.998;2022-11-15T01:31:12;11.20;99.90
48946;DHT22;34999;50.940;3.998;2022-11-15T01:33:41;11.20;99.90
48946;DHT22;34999;50.940;3.998;2022-11-15T01:36:12;11.20;99.90
48946;DHT22;34999;50.940;3.998;2022-11-15T01:38:40;11.20;99.90
48946;DHT22;34999;50.940;3.998;2022-11-15T01:41:16;11.10;99.90
48946;DHT22;34999;50.940;3.998;2022-11-15T01:43:46;11.10;99.90
48946;DHT22;34999;50.940;3.998;2022-11-15T01:46:23;11.10;99.90
48946;DHT22;34999;50.940;3.998;2022-11-15T01:48:53;11.10;99.90
48946;DHT22;34999;50.940;3.998;2022-11-15T01:51:25;11.10;99.90
48946;DHT22;34999;50.940;3.998;2022-11-15T01:53:56;11.00;99.90
48946;DHT22;34999;50.940;3.998;2022-11-15T01:56:30;11.00;99.90
48946;DHT22;34999;50.940;3.998;2022-11-15T01:59:00;11.00;99.90
48946;DHT22;34999;50.940;3.998;2022-11-15T02:01:30;11.10;99.90
48946;DHT22;34999;50.940;3.998;2022-11-15T02:04:04;11.10;99.90
48946;DHT22;34999;50.940;3.998;2022-11-15T02:06:35;11.10;99.90
48946;DHT22;34999;50.940;3.998;2022-11-15T02:09:03;11.10;99.90
48946;DHT22;34999;50.940;3.998;2022-11-15T02:11:33;11.10;99.90
48946;DHT22;34999;50.940;3.998;2022-11-15T02:14:03;11.10;99.90
48946;DHT22;34999;50.940;3.998;2022-11-15T02:16:38;11.10;99.90
48946;DHT22;34999;50.940;3.998;2022-11-15T02:19:27;11.10;99.90
48946;DHT22;34999;50.940;3.998;2022-11-15T02:22:05;11.10;99.90
48946;DHT22;34999;50.940;3.998;2022-11-15T02:24:55;11.10;99.90
48946;DHT22;34999;50.940;3.998;2022-11-15T02:27:39;11.10;99.90
48946;DHT22;34999;50.940;3.998;2022-11-15T02:30:29;11.10;99.90
48946;DHT22;34999;50.940;3.998;2022-11-15T02:33:07;11.10;99.90
48946;DHT22;34999;50.940;3.998;2022-11-15T02:35:45;11.10;99.90
48946;DHT22;34999;50.940;3.998;2022-11-15T02:38:22;11.00;99.90
48946;DHT22;34999;50.940;3.998;2022-11-15T02:40:56;11.00;99.90
48946;DHT22;34999;50.940;3.998;2022-11-15T02:43:30;10.90;99.90
48946;DHT22;34999;50.940;3.998;2022-11-15T02:46:23;10.90;99.90
48946;DHT22;34999;50.940;3.998;2022-11-15T02:49:16;11.00;99.90
48946;DHT22;34999;50.940;3.998;2022-11-15T02:51:47;10.90;99.90
48946;DHT22;34999;50.940;3.998;2022-11-15T02:54:20;10.90;99.90
48946;DHT22;34999;50.940;3.998;2022-11-15T02:56:49;10.90;99.90
48946;DHT22;34999;50.940;3.998;2022-11-15T02:59:31;10.90;99.90
48946;DHT22;34999;50.940;3.998;2022-11-15T03:02:18;10.80;99.90
48946;DHT22;34999;50.940;3.998;2022-11-15T03:04:54;10.90;99.90
48946;DHT22;34999;50.940;3.998;2022-11-15T03:07:28;10.80;99.90
48946;DHT22;34999;50.940;3.998;2022-11-15T03:10:02;10.80;99.90
48946;DHT22;34999;50.940;3.998;2022-11-15T03:12:37;10.80;99.90
48946;DHT22;34999;50.940;3.998;2022-11-15T03:15:10;10.90;99.90
48946;DHT22;34999;50.940;3.998;2022-11-15T03:17:46;10.90;99.90
48946;DHT22;34999;50.940;3.998;2022-11-15T03:20:17;10.90;99.90
48946;DHT22;34999;50.940;3.998;2022-11-15T03:22:48;10.80;99.90
48946;DHT22;34999;50.940;3.998;2022-11-15T03:25:20;10.80;99.90
48946;DHT22;34999;50.940;3.998;2022-11-15T03:27:53;10.80;99.90
48946;DHT22;34999;50.940;3.998;2022-11-15T03:30:23;10.80;99.90
48946;DHT22;34999;50.940;3.998;2022-11-15T03:32:56;10.80;99.90
48946;DHT22;34999;50.940;3.998;2022-11-15T03:35:25;10.80;99.90
48946;DHT22;34999;50.940;3.998;2022-11-15T03:38:00;10.80;99.90
48946;DHT22;34999;50.940;3.998;2022-11-15T03:40:37;10.80;99.90
48946;DHT22;34999;50.940;3.998;2022-11-15T03:43:13;10.80;99.90
48946;DHT22;34999;50.940;3.998;2022-11-15T03:45:46;10.80;99.90
48946;DHT22;34999;50.940;3.998;2022-11-15T03:48:21;10.70;99.90
48946;DHT22;34999;50.940;3.998;2022-11-15T03:50:51;10.70;99.90
48946;DHT22;34999;50.940;3.998;2022-11-15T03:53:19;10.70;99.90
48946;DHT22;34999;50.940;3.998;2022-11-15T03:55:48;10.70;99.90
48946;DHT22;34999;50.940;3.998;2022-11-15T03:58:16;10.70;99.90
48946;DHT22;34999;50.940;3.998;2022-11-15T04:00:45;10.70;99.90
48946;DHT22;34999;50.940;3.998;2022-11-15T04:03:13;10.70;99.90
48946;DHT22;34999;50.940;3.998;2022-11-15T04:05:42;10.70;99.90
48946;DHT22;34999;50.940;3.998;2022-11-15T04:08:11;10.60;99.90
48946;DHT22;34999;50.940;3.998;2022-11-15T04:10:39;10.60;99.90
48946;DHT22;34999;50.940;3.998;2022-11-15T04:13:08;10.60;99.90
48946;DHT22;34999;50.940;3.998;2022-11-15T04:15:36;10.50;99.90
48946;DHT22;34999;50.940;3.998;2022-11-15T04:18:04;10.50;99.90
48946;DHT22;34999;50.940;3.998;2022-11-15T04:20:34;10.50;99.90
48946;DHT22;34999;50.940;3.998;2022-11-15T04:23:23;10.50;99.90
48946;DHT22;34999;50.940;3.998;2022-11-15T04:26:10;10.50;99.90
48946;DHT22;34999;50.940;3.998;2022-11-15T04:28:39;10.40;99.90
48946;DHT22;34999;50.940;3.998;2022-11-15T04:31:28;10.40;99.90
48946;DHT22;34999;50.940;3.998;2022-11-15T04:33:57;10.30;99.90
48946;DHT22;34999;50.940;3.998;2022-11-15T04:36:26;10.30;99.90
48946;DHT22;34999;50.940;3.998;2022-11-15T04:39:13;10.30;99.90
48946;DHT22;34999;50.940;3.998;2022-11-15T04:41:41;10.20;99.90
48946;DHT22;34999;50.940;3.998;2022-11-15T04:44:09;10.20;99.90
48946;DHT22;34999;50.940;3.998;2022-11-15T04:46:38;10.20;99.90
48946;DHT22;34999;50.940;3.998;2022-11-15T04:49:06;10.20;99.90
48946;DHT22;34999;50.940;3.998;2022-11-15T04:51:34;10.20;99.90
48946;DHT22;34999;50.940;3.998;2022-11-15T04:54:03;10.20;99.90
48946;DHT22;34999;50.940;3.998;2022-11-15T04:56:32;10.20;99.90
48946;DHT22;34999;50.940;3.998;2022-11-15T04:59:01;10.20;99.90
48946;DHT22;34999;50.940;3.998;2022-11-15T05:01:29;10.20;99.90
48946;DHT22;34999;50.940;3.998;2022-11-15T05:03:58;10.10;99.90
48946;DHT22;34999;50.940;3.998;2022-11-15T05:06:44;10.10;99.90
48946;DHT22;34999;50.940;3.998;2022-11-15T05:09:12;10.10;99.90
48946;DHT22;34999;50.940;3.998;2022-11-15T05:11:42;10.00;99.90
48946;DHT22;34999;50.940;3.998;2022-11-15T05:14:11;10.00;99.90
48946;DHT22;34999;50.940;3.998;2022-11-15T05:16:40;9.90;99.90
48946;DHT22;34999;50.940;3.998;2022-11-15T05:19:08;9.80;99.90
48946;DHT22;34999;50.940;3.998;2022-11-15T05:21:37;9.70;99.90
48946;DHT22;34999;50.940;3.998;2022-11-15T05:24:06;9.70;99.90
48946;DHT22;34999;50.940;3.998;2022-11-15T05:26:36;9.70;99.90
48946;DHT22;34999;50.940;3.998;2022-11-15T05:29:08;9.60;99.90
48946;DHT22;34999;50.940;3.998;2022-11-15T05:31:39;9.60;99.90
48946;DHT22;34999;50.940;3.998;2022-11-15T05:34:08;9.60;99.90
48946;DHT22;34999;50.940;3.998;2022-11-15T05:36:38;9.70;99.90
48946;DHT22;34999;50.940;3.998;2022-11-15T05:39:09;9.70;99.90
48946;DHT22;34999;50.940;3.998;2022-11-15T05:41:40;9.70;99.90
48946;DHT22;34999;50.940;3.998;2022-11-15T05:44:13;9.80;99.90
48946;DHT22;34999;50.940;3.998;2022-11-15T05:46:43;9.80;99.90
48946;DHT22;34999;50.940;3.998;2022-11-15T05:49:15;9.80;99.90
48946;DHT22;34999;50.940;3.998;2022-11-15T05:51:46;9.80;99.90
48946;DHT22;34999;50.940;3.998;2022-11-15T05:54:16;9.80;99.90
48946;DHT22;34999;50.940;3.998;2022-11-15T05:56:45;9.90;99.90
48946;DHT22;34999;50.940;3.998;2022-11-15T05:59:15;9.90;99.90
48946;DHT22;34999;50.940;3.998;2022-11-15T06:01:44;9.90;99.90
48946;DHT22;34999;50.940;3.998;2022-11-15T06:04:12;9.90;99.90
48946;DHT22;34999;50.940;3.998;2022-11-15T06:06:40;9.90;99.90
48946;DHT22;34999;50.940;3.998;2022-11-15T06:09:09;9.90;99.90
48946;DHT22;34999;50.940;3.998;2022-11-15T06:11:37;9.90;99.90
48946;DHT22;34999;50.940;3.998;2022-11-15T06:14:06;9.90;99.90
48946;DHT22;34999;50.940;3.998;2022-11-15T06:16:36;9.90;99.90
48946;DHT22;34999;50.940;3.998;2022-11-15T06:19:06;9.80;99.90
48946;DHT22;34999;50.940;3.998;2022-11-15T06:21:34;9.70;99.90
48946;DHT22;34999;50.940;3.998;2022-11-15T06:24:04;9.70;99.90
48946;DHT22;34999;50.940;3.998;2022-11-15T06:26:32;9.60;99.90
48946;DHT22;34999;50.940;3.998;2022-11-15T06:29:02;9.50;99.90
48946;DHT22;34999;50.940;3.998;2022-11-15T06:31:31;9.40;99.90
48946;DHT22;34999;50.940;3.998;2022-11-15T06:34:02;9.40;99.90
48946;DHT22;34999;50.940;3.998;2022-11-15T06:36:30;9.30;99.90
48946;DHT22;34999;50.940;3.998;2022-11-15T06:38:59;9.20;99.90
48946;DHT22;34999;50.940;3.998;2022-11-15T06:41:27;9.10;99.90
48946;DHT22;34999;50.940;3.998;2022-11-15T06:43:57;9.10;99.90
48946;DHT22;34999;50.940;3.998;2022-11-15T06:46:28;9.10;99.90
48946;DHT22;34999;50.940;3.998;2022-11-15T06:48:56;9.00;99.90
48946;DHT22;34999;50.940;3.998;2022-11-15T06:51:26;9.00;99.90
48946;DHT22;34999;50.940;3.998;2022-11-15T06:53:54;9.00;99.90
48946;DHT22;34999;50.940;3.998;2022-11-15T06:56:23;9.00;99.90
48946;DHT22;34999;50.940;3.998;2022-11-15T06:58:51;8.90;99.90
48946;DHT22;34999;50.940;3.998;2022-11-15T07:01:19;8.90;99.90
48946;DHT22;34999;50.940;3.998;2022-11-15T07:03:48;8.90;99.90
48946;DHT22;34999;50.940;3.998;2022-11-15T07:06:16;8.80;99.90
48946;DHT22;34999;50.940;3.998;2022-11-15T07:08:46;8.80;99.90
48946;DHT22;34999;50.940;3.998;2022-11-15T07:11:14;8.80;99.90
48946;DHT22;34999;50.940;3.998;2022-11-15T07:13:43;8.70;99.90
48946;DHT22;34999;50.940;3.998;2022-11-15T07:16:11;8.70;99.90
48946;DHT22;34999;50.940;3.998;2022-11-15T07:18:40;8.70;99.90
48946;DHT22;34999;50.940;3.998;2022-11-15T07:21:12;8.80;99.90
48946;DHT22;34999;50.940;3.998;2022-11-15T07:23:41;8.80;99.90
48946;DHT22;34999;50.940;3.998;2022-11-15T07:26:11;8.80;99.90
48946;DHT22;34999;50.940;3.998;2022-11-15T07:28:40;8.90;99.90
48946;DHT22;34999;50.940;3.998;2022-11-15T07:31:08;8.90;99.90
48946;DHT22;34999;50.940;3.998;2022-11-15T07:33:37;8.90;99.90
48946;DHT22;34999;50.940;3.998;2022-11-15T07:36:06;8.90;99.90
48946;DHT22;34999;50.940;3.998;2022-11-15T07:38:36;8.90;99.90
48946;DHT22;34999;50.940;3.998;2022-11-15T07:41:10;9.00;99.90
48946;DHT22;34999;50.940;3.998;2022-11-15T07:43:39;8.90;99.90
48946;DHT22;34999;50.940;3.998;2022-11-15T07:46:08;9.00;99.90
48946;DHT22;34999;50.940;3.998;2022-11-15T07:48:36;8.90;99.90
48946;DHT22;34999;50.940;3.998;2022-11-15T07:51:12;9.00;99.90
48946;DHT22;34999;50.940;3.998;2022-11-15T07:53:41;9.10;99.90
48946;DHT22;34999;50.940;3.998;2022-11-15T07:56:11;9.10;99.90
48946;DHT22;34999;50.940;3.998;2022-11-15T07:58:40;9.20;99.90
48946;DHT22;34999;50.940;3.998;2022-11-15T08:01:10;9.20;99.90
48946;DHT22;34999;50.940;3.998;2022-11-15T08:03:41;9.30;99.90
48946;DHT22;34999;50.940;3.998;2022-11-15T08:06:09;9.40;99.90
48946;DHT22;34999;50.940;3.998;2022-11-15T08:08:37;9.40;99.90
48946;DHT22;34999;50.940;3.998;2022-11-15T08:11:06;9.50;99.90
48946;DHT22;34999;50.940;3.998;2022-11-15T08:13:36;9.60;99.90
48946;DHT22;34999;50.940;3.998;2022-11-15T08:16:04;9.60;99.90
48946;DHT22;34999;50.940;3.998;2022-11-15T08:18:34;9.70;99.90
48946;DHT22;34999;50.940;3.998;2022-11-15T08:21:02;9.70;99.90
48946;DHT22;34999;50.940;3.998;2022-11-15T08:23:31;9.80;99.90
48946;DHT22;34999;50.940;3.998;2022-11-15T08:26:01;9.80;99.90
48946;DHT22;34999;50.940;3.998;2022-11-15T08:28:30;9.80;99.90
48946;DHT22;34999;50.940;3.998;2022-11-15T08:30:59;9.90;99.90
48946;DHT22;34999;50.940;3.998;2022-11-15T08:33:28;9.90;99.90
48946;DHT22;34999;50.940;3.998;2022-11-15T08:35:57;9.90;99.90
48946;DHT22;34999;50.940;3.998;2022-11-15T08:38:26;10.00;99.90
48946;DHT22;34999;50.940;3.998;2022-11-15T08:41:04;10.00;99.90
48946;DHT22;34999;50.940;3.998;2022-11-15T08:43:33;10.00;99.90
48946;DHT22;34999;50.940;3.998;2022-11-15T08:46:03;10.10;99.90
48946;DHT22;34999;50.940;3.998;2022-11-15T08:48:31;10.20;99.90
48946;DHT22;34999;50.940;3.998;2022-11-15T08:51:00;10.30;99.90
48946;DHT22;34999;50.940;3.998;2022-11-15T08:53:29;10.40;99.90
48946;DHT22;34999;50.940;3.998;2022-11-15T08:55:57;10.30;99.90
48946;DHT22;34999;50.940;3.998;2022-11-15T08:58:26;10.30;99.90
48946;DHT22;34999;50.940;3.998;2022-11-15T09:00:55;10.40;99.90
48946;DHT22;34999;50.940;3.998;2022-11-15T09:03:24;10.50;99.90
48946;DHT22;34999;50.940;3.998;2022-11-15T09:05:54;10.70;99.90
48946;DHT22;34999;50.940;3.998;2022-11-15T09:08:24;10.80;99.90
48946;DHT22;34999;50.940;3.998;2022-11-15T09:11:13;11.00;99.90
48946;DHT22;34999;50.940;3.998;2022-11-15T09:13:41;11.10;99.90
48946;DHT22;34999;50.940;3.998;2022-11-15T09:16:09;11.20;99.90
48946;DHT22;34999;50.940;3.998;2022-11-15T09:18:40;11.30;99.90
48946;DHT22;34999;50.940;3.998;2022-11-15T09:21:09;11.40;99.90
48946;DHT22;34999;50.940;3.998;2022-11-15T09:23:37;11.50;99.90
48946;DHT22;34999;50.940;3.998;2022-11-15T09:26:08;11.60;99.90
48946;DHT22;34999;50.940;3.998;2022-11-15T09:28:37;11.70;99.90
48946;DHT22;34999;50.940;3.998;2022-11-15T09:31:09;11.80;99.90
48946;DHT22;34999;50.940;3.998;2022-11-15T09:33:37;11.70;99.90
48946;DHT22;34999;50.940;3.998;2022-11-15T09:36:08;11.80;99.90
48946;DHT22;34999;50.940;3.998;2022-11-15T09:38:37;11.80;99.90
48946;DHT22;34999;50.940;3.998;2022-11-15T09:41:38;11.80;99.90
48946;DHT22;34999;50.940;3.998;2022-11-15T09:44:29;11.80;99.90
48946;DHT22;34999;50.940;3.998;2022-11-15T09:47:06;11.90;99.90
48946;DHT22;34999;50.940;3.998;2022-11-15T09:49:37;12.00;99.90
48946;DHT22;34999;50.940;3.998;2022-11-15T09:52:10;12.00;99.90
48946;DHT22;34999;50.940;3.998;2022-11-15T09:54:41;11.90;99.90
48946;DHT22;34999;50.940;3.998;2022-11-15T09:57:23;11.80;99.90
48946;DHT22;34999;50.940;3.998;2022-11-15T10:00:07;11.70;99.90
48946;DHT22;34999;50.940;3.998;2022-11-15T10:03:09;11.70;99.90
48946;DHT22;34999;50.940;3.998;2022-11-15T10:05:40;11.60;99.90
48946;DHT22;34999;50.940;3.998;2022-11-15T10:08:24;11.70;99.90
48946;DHT22;34999;50.940;3.998;2022-11-15T10:10:57;11.80;99.90
48946;DHT22;34999;50.940;3.998;2022-11-15T10:13:48;12.00;99.90
48946;DHT22;34999;50.940;3.998;2022-11-15T10:16:39;12.10;99.90
48946;DHT22;34999;50.940;3.998;2022-11-15T10:19:16;12.10;99.90
48946;DHT22;34999;50.940;3.998;2022-11-15T10:21:53;12.20;99.90
48946;DHT22;34999;50.940;3.998;2022-11-15T10:24:28;12.30;99.90
48946;DHT22;34999;50.940;3.998;2022-11-15T10:26:57;12.50;99.90
48946;DHT22;34999;50.940;3.998;2022-11-15T10:29:25;12.60;99.90
48946;DHT22;34999;50.940;3.998;2022-11-15T10:31:54;12.70;99.90
48946;DHT22;34999;50.940;3.998;2022-11-15T10:34:23;12.70;99.90
48946;DHT22;34999;50.940;3.998;2022-11-15T10:36:56;12.70;99.90
48946;DHT22;34999;50.940;3.998;2022-11-15T10:39:26;12.70;99.90
48946;DHT22;34999;50.940;3.998;2022-11-15T10:41:55;12.80;99.90
48946;DHT22;34999;50.940;3.998;2022-11-15T10:44:26;12.80;99.90
48946;DHT22;34999;50.940;3.998;2022-11-15T10:47:06;12.90;99.90
48946;DHT22;34999;50.940;3.998;2022-11-15T10:50:03;13.00;99.90
48946;DHT22;34999;50.940;3.998;2022-11-15T10:52:34;12.90;99.90
48946;DHT22;34999;50.940;3.998;2022-11-15T10:55:21;13.10;99.90
48946;DHT22;34999;50.940;3.998;2022-11-15T10:57:53;13.10;99.90
48946;DHT22;34999;50.940;3.998;2022-11-15T11:00:31;12.90;99.90
48946;DHT22;34999;50.940;3.998;2022-11-15T11:03:26;13.00;99.90
48946;DHT22;34999;50.940;3.998;2022-11-15T11:06:08;13.10;99.90
48946;DHT22;34999;50.940;3.998;2022-11-15T11:08:37;13.00;99.90
48946;DHT22;34999;50.940;3.998;2022-11-15T11:11:08;13.10;99.90
48946;DHT22;34999;50.940;3.998;2022-11-15T11:13:38;13.00;99.90
48946;DHT22;34999;50.940;3.998;2022-11-15T11:16:37;13.20;99.90
48946;DHT22;34999;50.940;3.998;2022-11-15T11:22:09;13.30;99.90
48946;DHT22;34999;50.940;3.998;2022-11-15T11:24:44;13.30;99.90
48946;DHT22;34999;50.940;3.998;2022-11-15T11:27:23;13.20;99.90
48946;DHT22;34999;50.940;3.998;2022-11-15T11:30:03;13.20;99.90
48946;DHT22;34999;50.940;3.998;2022-11-15T11:32:51;13.20;99.90
48946;DHT22;34999;50.940;3.998;2022-11-15T11:35:26;13.20;99.90
48946;DHT22;34999;50.940;3.998;2022-11-15T11:38:11;13.10;99.90
48946;DHT22;34999;50.940;3.998;2022-11-15T11:40:47;13.10;99.90
48946;DHT22;34999;50.940;3.998;2022-11-15T11:43:27;13.10;99.90
48946;DHT22;34999;50.940;3.998;2022-11-15T11:46:13;13.10;99.90
48946;DHT22;34999;50.940;3.998;2022-11-15T11:48:45;13.00;99.90
48946;DHT22;34999;50.940;3.998;2022-11-15T11:51:18;13.00;99.90
48946;DHT22;34999;50.940;3.998;2022-11-15T11:53:53;13.00;99.90
48946;DHT22;34999;50.940;3.998;2022-11-15T11:56:26;13.00;99.90
48946;DHT22;34999;50.940;3.998;2022-11-15T11:59:00;13.00;99.90
48946;DHT22;34999;50.940;3.998;2022-11-15T12:01:35;13.00;99.90
48946;DHT22;34999;50.940;3.998;2022-11-15T12:04:10;13.10;99.90
48946;DHT22;34999;50.940;3.998;2022-11-15T12:06:45;13.00;99.90
48946;DHT22;34999;50.940;3.998;2022-11-15T12:09:17;13.00;99.90
48946;DHT22;34999;50.940;3.998;2022-11-15T12:11:59;13.00;99.90
48946;DHT22;34999;50.940;3.998;2022-11-15T12:14:34;12.90;99.90
48946;DHT22;34999;50.940;3.998;2022-11-15T12:17:04;12.90;99.90
48946;DHT22;34999;50.940;3.998;2022-11-15T12:19:33;12.90;99.90
48946;DHT22;34999;50.940;3.998;2022-11-15T12:22:04;12.90;99.90
48946;DHT22;34999;50.940;3.998;2022-11-15T12:24:39;12.90;99.90
48946;DHT22;34999;50.940;3.998;2022-11-15T12:27:16;13.00;99.90
48946;DHT22;34999;50.940;3.998;2022-11-15T12:29:56;13.00;99.90
48946;DHT22;34999;50.940;3.998;2022-11-15T12:32:28;13.10;99.90
48946;DHT22;34999;50.940;3.998;2022-11-15T12:34:58;13.10;99.90
48946;DHT22;34999;50.940;3.998;2022-11-15T12:37:54;13.10;99.90
48946;DHT22;34999;50.940;3.998;2022-11-15T12:40:37;13.20;99.90
48946;DHT22;34999;50.940;3.998;2022-11-15T12:46:10;13.20;99.90
48946;DHT22;34999;50.940;3.998;2022-11-15T12:48:57;13.20;99.90
48946;DHT22;34999;50.940;3.998;2022-11-15T12:54:58;13.30;99.90
48946;DHT22;34999;50.940;3.998;2022-11-15T12:57:40;13.30;99.90
48946;DHT22;34999;50.940;3.998;2022-11-15T13:00:42;13.30;99.90
48946;DHT22;34999;50.940;3.998;2022-11-15T13:03:18;13.20;99.90
48946;DHT22;34999;50.940;3.998;2022-11-15T13:06:05;13.30;99.90
48946;DHT22;34999;50.940;3.998;2022-11-15T13:08:46;13.20;99.90
48946;DHT22;34999;50.940;3.998;2022-11-15T13:11:44;13.20;99.90
48946;DHT22;34999;50.940;3.998;2022-11-15T13:14:43;13.30;99.90
48946;DHT22;34999;50.940;3.998;2022-11-15T13:17:30;13.30;99.90
48946;DHT22;34999;50.940;3.998;2022-11-15T13:20:21;13.30;99.90
48946;DHT22;34999;50.940;3.998;2022-11-15T13:22:51;13.30;99.90
48946;DHT22;34999;50.940;3.998;2022-11-15T13:25:40;13.30;99.90
48946;DHT22;34999;50.940;3.998;2022-11-15T13:28:21;13.30;99.90
48946;DHT22;34999;50.940;3.998;2022-11-15T13:30:52;13.20;99.90
48946;DHT22;34999;50.940;3.998;2022-11-15T13:33:23;13.20;99.90
48946;DHT22;34999;50.940;3.998;2022-11-15T13:35:59;13.20;99.90
48946;DHT22;34999;50.940;3.998;2022-11-15T13:38:30;13.20;99.90
48946;DHT22;34999;50.940;3.998;2022-11-15T13:41:10;13.20;99.90
48946;DHT22;34999;50.940;3.998;2022-11-15T13:43:39;13.20;99.90
48946;DHT22;34999;50.940;3.998;2022-11-15T13:46:11;13.10;99.90
48946;DHT22;34999;50.940;3.998;2022-11-15T13:48:41;13.10;99.90
48946;DHT22;34999;50.940;3.998;2022-11-15T13:51:18;13.00;99.90
48946;DHT22;34999;50.940;3.998;2022-11-15T13:53:52;13.10;99.90
48946;DHT22;34999;50.940;3.998;2022-11-15T13:56:23;13.00;99.90
48946;DHT22;34999;50.940;3.998;2022-11-15T13:58:53;13.00;99.90
48946;DHT22;34999;50.940;3.998;2022-11-15T14:01:22;13.00;99.90
48946;DHT22;34999;50.940;3.998;2022-11-15T14:03:54;13.00;99.90
48946;DHT22;34999;50.940;3.998;2022-11-15T14:06:28;13.00;99.90
48946;DHT22;34999;50.940;3.998;2022-11-15T14:11:52;13.00;99.90
48946;DHT22;34999;50.940;3.998;2022-11-15T14:14:22;12.80;99.90
48946;DHT22;34999;50.940;3.998;2022-11-15T14:16:52;12.80;99.90
48946;DHT22;34999;50.940;3.998;2022-11-15T14:19:38;12.70;99.90
48946;DHT22;34999;50.940;3.998;2022-11-15T14:22:20;12.50;99.90
48946;DHT22;34999;50.940;3.998;2022-11-15T14:25:07;12.40;99.90
48946;DHT22;34999;50.940;3.998;2022-11-15T14:27:35;12.30;99.90
48946;DHT22;34999;50.940;3.998;2022-11-15T14:30:04;12.20;99.90
48946;DHT22;34999;50.940;3.998;2022-11-15T14:32:39;12.10;99.90
48946;DHT22;34999;50.940;3.998;2022-11-15T14:35:13;12.00;99.90
48946;DHT22;34999;50.940;3.998;2022-11-15T14:37:43;12.00;99.90
48946;DHT22;34999;50.940;3.998;2022-11-15T14:40:14;12.00;99.90
48946;DHT22;34999;50.940;3.998;2022-11-15T14:42:45;11.90;99.90
48946;DHT22;34999;50.940;3.998;2022-11-15T14:45:15;11.80;99.90
48946;DHT22;34999;50.940;3.998;2022-11-15T14:47:44;11.80;99.90
48946;DHT22;34999;50.940;3.998;2022-11-15T14:50:13;11.70;99.90
48946;DHT22;34999;50.940;3.998;2022-11-15T14:52:47;11.70;99.90
48946;DHT22;34999;50.940;3.998;2022-11-15T14:55:19;11.60;99.90
48946;DHT22;34999;50.940;3.998;2022-11-15T14:57:49;11.50;99.90
48946;DHT22;34999;50.940;3.998;2022-11-15T15:00:17;11.50;99.90
48946;DHT22;34999;50.940;3.998;2022-11-15T15:02:46;11.50;99.90
48946;DHT22;34999;50.940;3.998;2022-11-15T15:05:18;11.40;99.90
48946;DHT22;34999;50.940;3.998;2022-11-15T15:07:49;11.40;99.90
48946;DHT22;34999;50.940;3.998;2022-11-15T15:10:19;11.40;99.90
48946;DHT22;34999;50.940;3.998;2022-11-15T15:13:14;11.40;99.90
48946;DHT22;34999;50.940;3.998;2022-11-15T15:15:44;11.40;99.90
48946;DHT22;34999;50.940;3.998;2022-11-15T15:18:12;11.30;99.90
48946;DHT22;34999;50.940;3.998;2022-11-15T15:20:41;11.30;99.90
48946;DHT22;34999;50.940;3.998;2022-11-15T15:23:16;11.40;99.90
48946;DHT22;34999;50.940;3.998;2022-11-15T15:25:45;11.30;99.90
48946;DHT22;34999;50.940;3.998;2022-11-15T15:28:14;11.40;99.90
48946;DHT22;34999;50.940;3.998;2022-11-15T15:30:42;11.30;99.90
48946;DHT22;34999;50.940;3.998;2022-11-15T15:33:10;11.30;99.90
48946;DHT22;34999;50.940;3.998;2022-11-15T15:35:39;11.30;99.90
48946;DHT22;34999;50.940;3.998;2022-11-15T15:38:09;11.40;99.90
48946;DHT22;34999;50.940;3.998;2022-11-15T15:40:40;11.40;99.90
48946;DHT22;34999;50.940;3.998;2022-11-15T15:43:08;11.40;99.90
48946;DHT22;34999;50.940;3.998;2022-11-15T15:45:37;11.40;99.90
48946;DHT22;34999;50.940;3.998;2022-11-15T15:48:10;11.40;99.90
48946;DHT22;34999;50.940;3.998;2022-11-15T15:50:38;11.40;99.90
48946;DHT22;34999;50.940;3.998;2022-11-15T15:53:07;11.40;99.90
48946;DHT22;34999;50.940;3.998;2022-11-15T15:55:38;11.40;99.90
48946;DHT22;34999;50.940;3.998;2022-11-15T15:58:07;11.40;99.90
48946;DHT22;34999;50.940;3.998;2022-11-15T16:00:36;11.40;99.90
48946;DHT22;34999;50.940;3.998;2022-11-15T16:03:04;11.50;99.90
48946;DHT22;34999;50.940;3.998;2022-11-15T16:05:32;11.50;99.90
48946;DHT22;34999;50.940;3.998;2022-11-15T16:08:01;11.50;99.90
48946;DHT22;34999;50.940;3.998;2022-11-15T16:10:31;11.50;99.90
48946;DHT22;34999;50.940;3.998;2022-11-15T16:13:02;11.50;99.90
48946;DHT22;34999;50.940;3.998;2022-11-15T16:15:31;11.50;99.90
48946;DHT22;34999;50.940;3.998;2022-11-15T16:18:01;11.50;99.90
48946;DHT22;34999;50.940;3.998;2022-11-15T16:20:32;11.50;99.90
48946;DHT22;34999;50.940;3.998;2022-11-15T16:23:02;11.60;99.90